Time;durP1;ratioP1;P1;durP2;ratioP2;P2;SDS_P1;SDS_P2;PMS_P1;PMS_P2;Temp;Humidity;BMP_temperature;BMP_pressure;BME280_temperature;BME280_humidity;BME280_pressure;Samples;Min_cycle;Max_cycle;Signal;HPM_P1;HPM_P2
2022/07/17 00:00:24;;;;;;;;;;;11.20;99.90;;;;;;5110371;28;20043;-75
2022/07/17 00:02:50;;;;;;;1.65;0.90;;;11.20;99.90;;;;;;5102340;27;19915;-75
2022/07/17 00:05:16;;;;;;;1.80;1.00;;;11.10;99.90;;;;;;5088331;27;20050;-75
2022/07/17 00:07:41;;;;;;;2.20;1.13;;;11.20;99.90;;;;;;5098367;28;20031;-75
2022/07/17 00:10:08;;;;;;;1.40;0.95;;;11.20;99.90;;;;;;5095394;28;20043;-75
2022/07/17 00:12:33;;;;;;;2.08;1.00;;;11.20;99.90;;;;;;5095139;28;20039;-75
2022/07/17 00:14:59;;;;;;;2.47;1.20;;;11.10;99.90;;;;;;5095963;28;20554;-75
2022/07/17 00:17:25;;;;;;;2.17;1.10;;;11.10;99.90;;;;;;5131250;27;20449;-75
2022/07/17 00:19:51;;;;;;;1.73;1.10;;;11.10;99.90;;;;;;5099601;27;20054;-75
2022/07/17 00:22:16;;;;;;;2.40;0.90;;;11.10;99.90;;;;;;5078771;27;20047;-75
2022/07/17 00:24:42;;;;;;;2.45;1.10;;;11.00;99.90;;;;;;5076811;28;20046;-75
2022/07/17 00:27:08;;;;;;;2.25;1.00;;;11.00;99.90;;;;;;5101928;27;20054;-75
2022/07/17 00:29:33;;;;;;;1.38;0.70;;;10.90;99.90;;;;;;5094138;28;20063;-75
2022/07/17 00:31:59;;;;;;;1.42;0.73;;;11.00;99.90;;;;;;5076363;28;20047;-75
2022/07/17 00:34:25;;;;;;;1.42;0.75;;;10.90;99.90;;;;;;5095609;27;20084;-74
2022/07/17 00:36:50;;;;;;;1.75;0.85;;;10.90;99.90;;;;;;5096690;28;20134;-75
2022/07/17 00:39:16;;;;;;;0.70;0.50;;;10.80;99.90;;;;;;5093091;27;20040;-75
2022/07/17 00:41:45;;;;;;;0.82;0.60;;;10.90;99.90;;;;;;5128544;27;20047;-75
2022/07/17 00:44:11;;;;;;;1.02;0.57;;;10.80;99.90;;;;;;5104255;28;20288;-75
2022/07/17 00:46:38;;;;;;;0.98;0.60;;;10.90;99.90;;;;;;5094811;28;20036;-75
2022/07/17 00:49:05;;;;;;;0.93;0.47;;;10.90;99.90;;;;;;5093859;28;20050;-75
2022/07/17 00:51:32;;;;;;;0.70;0.50;;;10.90;99.90;;;;;;5075776;28;20043;-75
2022/07/17 00:53:59;;;;;;;0.80;0.40;;;10.90;99.90;;;;;;5100213;27;20042;-75
2022/07/17 00:56:27;;;;;;;0.60;0.47;;;10.90;99.90;;;;;;5099165;28;20066;-75
2022/07/17 00:58:53;;;;;;;0.45;0.40;;;10.90;99.90;;;;;;5069656;27;20046;-75
2022/07/17 01:01:19;;;;;;;;;;;10.90;99.90;;;;;;5102180;28;20343;-75
2022/07/17 01:03:45;;;;;;;0.55;0.40;;;10.90;99.90;;;;;;5102694;27;19926;-75
2022/07/17 01:06:11;;;;;;;0.40;0.32;;;10.90;99.90;;;;;;5100509;28;20056;-75
2022/07/17 01:08:37;;;;;;;0.60;0.32;;;10.90;99.90;;;;;;5094066;27;20028;-76
2022/07/17 01:11:05;;;;;;;0.45;0.38;;;10.90;99.90;;;;;;5082178;28;20121;-75
2022/07/17 01:13:31;;;;;;;0.40;0.28;;;10.90;99.90;;;;;;5074367;28;20032;-75
2022/07/17 01:15:57;;;;;;;;;;;10.90;99.90;;;;;;5099284;28;20081;-75
2022/07/17 01:18:23;;;;;;;0.50;0.43;;;10.90;99.90;;;;;;5095007;28;19964;-75
2022/07/17 01:20:49;;;;;;;1.00;0.50;;;10.80;99.90;;;;;;5105101;28;20047;-75
2022/07/17 01:23:17;;;;;;;0.40;0.40;;;10.80;99.90;;;;;;5076937;28;20043;-75
2022/07/17 01:25:43;;;;;;;0.68;0.40;;;10.80;99.90;;;;;;5102302;28;20058;-75
2022/07/17 01:28:09;;;;;;;;;;;10.80;99.90;;;;;;5096538;28;20043;-75
2022/07/17 01:30:35;;;;;;;1.30;0.60;;;10.80;99.90;;;;;;5129508;27;19922;-75
2022/07/17 01:33:01;;;;;;;0.45;0.40;;;10.70;99.90;;;;;;5076141;28;20035;-75
2022/07/17 01:35:28;;;;;;;0.73;0.40;;;10.70;99.90;;;;;;5092917;28;20071;-75
2022/07/17 01:37:53;;;;;;;0.60;0.60;;;10.60;99.90;;;;;;5092647;28;20051;-75
2022/07/17 01:40:19;;;;;;;0.93;0.60;;;10.60;99.90;;;;;;5095984;28;20044;-75
2022/07/17 01:42:48;;;;;;;0.60;0.50;;;10.60;99.90;;;;;;5092218;28;20051;-75
2022/07/17 01:45:15;;;;;;;0.80;0.60;;;10.50;99.90;;;;;;5089576;28;20047;-75
2022/07/17 01:47:41;;;;;;;0.50;0.50;;;10.50;99.90;;;;;;5091985;28;20086;-75
2022/07/17 01:50:07;;;;;;;0.32;0.30;;;10.40;99.90;;;;;;5092933;28;20052;-75
2022/07/17 01:52:37;;;;;;;0.82;0.50;;;10.40;99.90;;;;;;5092727;28;20042;-75
2022/07/17 01:55:05;;;;;;;0.63;0.47;;;10.40;99.90;;;;;;5092365;28;20071;-75
2022/07/17 01:57:30;;;;;;;0.40;0.40;;;10.30;99.90;;;;;;5094801;28;20316;-75
2022/07/17 01:59:56;;;;;;;1.23;0.60;;;10.30;99.90;;;;;;5102321;28;20043;-75
2022/07/17 02:02:21;;;;;;;1.63;0.50;;;10.20;99.90;;;;;;5096920;28;20035;-75
2022/07/17 02:04:47;;;;;;;1.02;0.70;;;10.30;99.90;;;;;;5082661;28;20455;-75
2022/07/17 02:07:13;;;;;;;0.50;0.43;;;10.20;99.90;;;;;;5083199;28;20066;-75
2022/07/17 02:09:39;;;;;;;0.52;0.45;;;10.20;99.90;;;;;;5094676;28;20091;-75
2022/07/17 02:12:06;;;;;;;0.60;0.40;;;10.10;99.90;;;;;;5099894;27;20057;-75
2022/07/17 02:14:32;;;;;;;0.60;0.40;;;10.10;99.90;;;;;;5131189;27;20039;-75
2022/07/17 02:16:57;;;;;;;0.60;0.50;;;10.00;99.90;;;;;;5111876;27;20058;-75
2022/07/17 02:19:23;;;;;;;0.85;0.68;;;10.10;99.90;;;;;;5095118;28;20401;-75
2022/07/17 02:21:49;;;;;;;0.75;0.50;;;10.10;99.90;;;;;;5104991;27;20084;-75
2022/07/17 02:24:14;;;;;;;0.60;0.50;;;10.10;99.90;;;;;;5091253;27;20039;-75
2022/07/17 02:26:40;;;;;;;0.52;0.50;;;10.10;99.90;;;;;;5110712;27;20047;-75
2022/07/17 02:29:06;;;;;;;0.52;0.50;;;10.10;99.90;;;;;;5094502;28;20059;-75
2022/07/17 02:31:32;;;;;;;1.10;0.60;;;10.10;99.90;;;;;;5079327;28;20123;-75
2022/07/17 02:33:58;;;;;;;1.05;0.75;;;10.00;99.90;;;;;;5096472;28;20081;-75
2022/07/17 02:36:23;;;;;;;0.30;0.30;;;10.00;99.90;;;;;;5095761;27;20568;-75
2022/07/17 02:38:49;;;;;;;1.10;0.60;;;10.10;99.90;;;;;;5078057;28;20039;-75
2022/07/17 02:41:18;;;;;;;0.45;0.40;;;10.00;99.90;;;;;;5096491;28;20059;-75
2022/07/17 02:43:43;;;;;;;1.00;0.50;;;10.10;99.90;;;;;;5084830;28;20112;-75
2022/07/17 02:46:09;;;;;;;0.65;0.50;;;10.00;99.90;;;;;;5087205;27;20039;-75
2022/07/17 02:48:35;;;;;;;0.88;0.57;;;10.10;99.90;;;;;;5102702;27;20046;-75
2022/07/17 02:51:01;;;;;;;0.90;0.60;;;10.10;99.90;;;;;;5115562;27;20482;-75
2022/07/17 02:53:26;;;;;;;0.50;0.40;;;10.10;99.90;;;;;;5095710;28;20036;-75
2022/07/17 02:55:52;;;;;;;0.40;0.40;;;10.00;99.90;;;;;;5097990;28;20071;-75
2022/07/17 02:58:18;;;;;;;1.30;0.52;;;10.00;99.90;;;;;;5095179;28;20118;-75
2022/07/17 03:00:44;;;;;;;1.20;0.70;;;10.00;99.90;;;;;;5105595;27;20131;-75
2022/07/17 03:03:10;;;;;;;2.05;0.65;;;10.00;99.90;;;;;;5106731;27;20031;-75
2022/07/17 03:05:35;;;;;;;0.85;0.63;;;9.90;99.90;;;;;;5094503;28;20046;-75
2022/07/17 03:08:01;;;;;;;1.52;0.80;;;9.90;99.90;;;;;;5079493;28;20039;-75
2022/07/17 03:10:27;;;;;;;0.77;0.63;;;9.90;99.90;;;;;;5081444;28;20342;-75
2022/07/17 03:12:52;;;;;;;1.15;0.60;;;9.90;99.90;;;;;;5099790;28;20086;-76
2022/07/17 03:15:18;;;;;;;0.85;0.52;;;9.80;99.90;;;;;;5078915;28;20050;-76
2022/07/17 03:17:44;;;;;;;0.75;0.60;;;9.80;99.90;;;;;;5104476;27;20027;-76
2022/07/17 03:20:10;;;;;;;1.23;0.60;;;9.70;99.90;;;;;;5126570;27;20039;-76
2022/07/17 03:22:36;;;;;;;0.70;0.60;;;9.70;99.90;;;;;;5104366;28;20557;-76
2022/07/17 03:25:02;;;;;;;0.98;0.60;;;9.70;99.90;;;;;;5101308;27;20117;-76
2022/07/17 03:27:28;;;;;;;;;;;9.80;99.90;;;;;;5103952;28;20067;-75
2022/07/17 03:29:54;;;;;;;0.60;0.50;;;9.70;99.90;;;;;;5097719;28;19973;-77
2022/07/17 03:32:20;;;;;;;0.50;0.38;;;9.70;99.90;;;;;;5075418;28;20355;-76
2022/07/17 03:34:46;;;;;;;0.52;0.40;;;9.70;99.90;;;;;;5094643;28;20490;-76
2022/07/17 03:37:12;;;;;;;0.30;0.30;;;9.70;99.90;;;;;;5095481;28;20488;-77
2022/07/17 03:39:38;;;;;;;0.55;0.40;;;9.70;99.90;;;;;;5093961;28;20108;-76
2022/07/17 03:42:04;;;;;;;0.95;0.50;;;9.70;99.90;;;;;;5110924;28;20039;-76
2022/07/17 03:44:29;;;;;;;0.40;0.40;;;9.80;99.90;;;;;;5082450;27;20486;-76
2022/07/17 03:46:55;;;;;;;0.50;0.30;;;9.80;99.90;;;;;;5102069;27;20043;-76
2022/07/17 03:49:21;;;;;;;0.50;0.50;;;9.90;99.90;;;;;;5105998;27;20045;-75
2022/07/17 03:51:47;;;;;;;0.40;0.30;;;9.90;99.90;;;;;;5096525;28;20090;-75
2022/07/17 03:54:12;;;;;;;0.82;0.40;;;10.00;99.90;;;;;;5093233;28;20035;-75
2022/07/17 03:56:38;;;;;;;0.50;0.50;;;10.00;99.90;;;;;;5092392;28;20067;-76
2022/07/17 03:59:04;;;;;;;0.75;0.40;;;10.10;99.90;;;;;;5103239;27;20040;-75
2022/07/17 04:01:30;;;;;;;0.30;0.28;;;10.10;99.90;;;;;;5099038;28;20065;-75
2022/07/17 04:03:55;;;;;;;0.30;0.30;;;10.20;99.90;;;;;;5097270;27;20050;-75
2022/07/17 04:06:21;;;;;;;0.22;0.22;;;10.20;99.90;;;;;;5086618;27;20080;-75
2022/07/17 04:08:47;;;;;;;0.70;0.50;;;10.30;99.90;;;;;;5094622;27;20497;-75
2022/07/17 04:11:12;;;;;;;0.45;0.40;;;10.40;99.90;;;;;;5098464;27;20035;-75
2022/07/17 04:13:38;;;;;;;0.25;0.22;;;10.30;99.90;;;;;;5105328;28;20043;-75
2022/07/17 04:16:05;;;;;;;0.60;0.50;;;10.50;99.90;;;;;;5095246;27;20039;-71
2022/07/17 04:18:33;;;;;;;0.20;0.20;;;10.40;99.90;;;;;;5107040;27;20435;-71
2022/07/17 04:21:01;;;;;;;0.68;0.50;;;10.50;99.90;;;;;;5088045;27;20035;-71
2022/07/17 04:23:28;;;;;;;0.57;0.40;;;10.60;99.90;;;;;;5101484;28;20126;-71
2022/07/17 04:25:54;;;;;;;;;;;10.60;99.90;;;;;;5102029;28;20070;-71
2022/07/17 04:28:21;;;;;;;0.40;0.30;;;10.70;99.90;;;;;;5094306;28;19967;-71
2022/07/17 04:30:46;;;;;;;0.60;0.30;;;10.70;99.90;;;;;;5098498;27;20114;-71
2022/07/17 04:33:12;;;;;;;0.43;0.30;;;10.80;99.90;;;;;;5093090;28;20180;-71
2022/07/17 04:35:38;;;;;;;0.38;0.30;;;10.90;99.90;;;;;;5093401;28;20040;-71
2022/07/17 04:38:06;;;;;;;0.13;0.13;;;10.90;99.90;;;;;;5092231;28;20371;-70
2022/07/17 04:40:32;;;;;;;0.30;0.30;;;10.90;99.90;;;;;;5078200;27;20047;-70
2022/07/17 04:42:58;;;;;;;0.30;0.30;;;11.00;99.90;;;;;;5104076;27;20042;-70
2022/07/17 04:45:24;;;;;;;0.52;0.32;;;11.00;99.90;;;;;;5120856;27;20043;-71
2022/07/17 04:47:50;;;;;;;0.28;0.20;;;11.00;99.90;;;;;;5109867;27;20042;-70
2022/07/17 04:50:16;;;;;;;0.20;0.20;;;11.10;99.90;;;;;;5092510;28;20036;-70
2022/07/17 04:52:41;;;;;;;0.13;0.13;;;11.10;99.90;;;;;;5092120;28;20046;-71
2022/07/17 04:55:07;;;;;;;0.40;0.40;;;11.10;99.90;;;;;;5124436;27;20035;-71
2022/07/17 04:57:33;;;;;;;0.28;0.20;;;11.20;99.90;;;;;;5081430;27;20047;-70
2022/07/17 04:59:59;;;;;;;0.20;0.10;;;11.10;99.90;;;;;;5098081;27;20074;-71
2022/07/17 05:02:24;;;;;;;0.38;0.20;;;11.20;99.90;;;;;;5090971;27;20039;-70
2022/07/17 05:04:50;;;;;;;0.35;0.20;;;11.20;99.90;;;;;;5107432;27;20257;-70
2022/07/17 05:07:16;;;;;;;0.25;0.20;;;11.30;99.90;;;;;;5100409;28;20054;-70
2022/07/17 05:09:42;;;;;;;;;;;11.30;99.90;;;;;;5101547;27;20430;-71
2022/07/17 05:12:08;;;;;;;0.22;0.20;;;11.40;99.90;;;;;;5111130;27;19916;-71
2022/07/17 05:14:34;;;;;;;0.25;0.22;;;11.40;99.90;;;;;;5093383;27;20050;-71
2022/07/17 05:17:00;;;;;;;;;;;11.40;99.90;;;;;;5088473;28;20047;-71
2022/07/17 05:19:26;;;;;;;0.52;0.20;;;11.40;99.90;;;;;;5141523;27;19924;-71
2022/07/17 05:21:52;;;;;;;0.38;0.30;;;11.50;99.90;;;;;;5113025;27;20051;-71
2022/07/17 05:24:18;;;;;;;0.20;0.20;;;11.60;99.90;;;;;;5079012;27;20127;-71
2022/07/17 05:26:44;;;;;;;0.32;0.20;;;11.50;99.90;;;;;;5108236;27;20069;-71
2022/07/17 05:29:09;;;;;;;0.30;0.30;;;11.60;99.90;;;;;;5094049;28;20462;-71
2022/07/17 05:31:35;;;;;;;0.43;0.35;;;11.70;99.90;;;;;;5090750;28;20027;-71
2022/07/17 05:34:01;;;;;;;0.55;0.17;;;11.70;99.90;;;;;;5100488;28;20115;-71
2022/07/17 05:36:27;;;;;;;0.30;0.30;;;11.80;99.90;;;;;;5116411;27;20047;-71
2022/07/17 05:38:52;;;;;;;0.47;0.47;;;11.90;99.90;;;;;;5098471;28;20123;-71
2022/07/17 05:41:18;;;;;;;0.60;0.40;;;11.90;99.90;;;;;;5093154;28;20047;-71
2022/07/17 05:43:44;;;;;;;0.30;0.28;;;12.00;99.90;;;;;;5107349;28;20054;-71
2022/07/17 05:46:09;;;;;;;0.60;0.40;;;12.10;99.90;;;;;;5116608;27;20050;-71
2022/07/17 05:48:35;;;;;;;1.17;0.22;;;12.10;99.90;;;;;;5098774;27;20043;-71
2022/07/17 05:51:01;;;;;;;0.30;0.30;;;12.20;99.90;;;;;;5086070;28;20504;-71
2022/07/17 05:53:27;;;;;;;0.30;0.30;;;12.20;99.90;;;;;;5077179;27;20483;-70
2022/07/17 05:55:52;;;;;;;0.10;0.10;;;12.30;99.90;;;;;;5095373;27;20054;-72
2022/07/17 05:58:18;;;;;;;0.20;0.20;;;12.40;99.90;;;;;;5095581;27;20046;-71
2022/07/17 06:00:45;;;;;;;1.40;0.65;;;12.50;99.90;;;;;;5086730;27;20505;-71
2022/07/17 06:03:11;;;;;;;1.30;0.57;;;12.50;99.90;;;;;;5102428;28;20096;-71
2022/07/17 06:05:37;;;;;;;0.73;0.40;;;12.70;99.90;;;;;;5088840;28;20140;-71
2022/07/17 06:08:03;;;;;;;0.63;0.50;;;12.80;99.90;;;;;;5084335;27;20514;-71
2022/07/17 06:10:29;;;;;;;0.95;0.47;;;13.00;99.90;;;;;;5108219;27;20045;-71
2022/07/17 06:12:56;;;;;;;0.43;0.40;;;13.10;99.90;;;;;;5093342;28;20040;-71
2022/07/17 06:15:22;;;;;;;0.63;0.50;;;13.30;99.90;;;;;;5110302;28;20047;-71
2022/07/17 06:17:48;;;;;;;;;;;13.50;99.90;;;;;;5095378;28;20111;-71
2022/07/17 06:20:15;;;;;;;1.88;0.57;;;13.60;99.90;;;;;;5114337;28;20063;-70
2022/07/17 06:22:41;;;;;;;3.85;0.85;;;13.80;99.90;;;;;;5094944;28;20039;-70
2022/07/17 06:25:07;;;;;;;;;;;14.00;99.90;;;;;;5084669;27;20413;-70
2022/07/17 06:27:33;;;;;;;0.80;0.45;;;14.30;99.90;;;;;;5105097;28;20740;-71
2022/07/17 06:30:00;;;;;;;0.80;0.50;;;14.70;99.90;;;;;;5083337;28;20072;-71
2022/07/17 06:32:25;;;;;;;;;;;14.90;99.90;;;;;;5130530;27;20039;-71
2022/07/17 06:34:51;;;;;;;3.22;0.60;;;15.20;99.90;;;;;;5136052;27;20350;-71
2022/07/17 06:37:17;;;;;;;1.05;0.40;;;15.40;99.90;;;;;;5129554;27;20047;-71
2022/07/17 06:39:43;;;;;;;0.65;0.30;;;15.50;99.90;;;;;;5098697;27;20056;-71
2022/07/17 06:42:10;;;;;;;0.15;0.13;;;15.70;99.90;;;;;;5091683;28;20482;-71
2022/07/17 06:44:36;;;;;;;2.25;0.52;;;15.70;99.90;;;;;;5094849;28;20048;-71
2022/07/17 06:47:02;;;;;;;0.70;0.30;;;15.70;99.90;;;;;;5078872;28;20053;-71
2022/07/17 06:49:28;;;;;;;0.70;0.20;;;15.60;99.90;;;;;;5078593;28;20118;-71
2022/07/17 06:51:53;;;;;;;0.93;0.32;;;15.60;99.90;;;;;;5095468;28;20036;-71
2022/07/17 06:54:23;;;;;;;0.57;0.10;;;15.60;99.90;;;;;;5097413;27;20490;-71
2022/07/17 06:56:49;;;;;;;1.25;0.40;;;15.60;99.90;;;;;;5081329;28;20089;-71
2022/07/17 06:59:15;;;;;;;0.73;0.30;;;15.60;99.90;;;;;;5098914;27;20051;-71
2022/07/17 07:01:41;;;;;;;2.42;0.52;;;15.60;99.90;;;;;;5080607;28;20457;-71
2022/07/17 07:04:06;;;;;;;1.88;0.50;;;15.60;99.90;;;;;;5099132;27;20513;-71
2022/07/17 07:06:33;;;;;;;1.27;0.52;;;15.50;99.90;;;;;;5099874;28;20501;-71
2022/07/17 07:08:59;;;;;;;0.82;0.43;;;15.50;99.90;;;;;;5095321;28;20043;-72
2022/07/17 07:11:25;;;;;;;0.40;0.30;;;15.60;99.90;;;;;;5094133;28;20101;-71
2022/07/17 07:13:51;;;;;;;1.42;0.50;;;15.70;99.90;;;;;;5110764;27;20031;-71
2022/07/17 07:16:16;;;;;;;0.60;0.30;;;15.60;99.90;;;;;;5125737;27;20399;-72
2022/07/17 07:18:42;;;;;;;1.40;0.30;;;15.70;99.90;;;;;;5093800;28;20071;-71
2022/07/17 07:21:08;;;;;;;1.08;0.40;;;15.80;99.90;;;;;;5095874;27;20443;-71
2022/07/17 07:23:33;;;;;;;1.25;0.35;;;15.80;99.90;;;;;;5100060;28;20040;-71
2022/07/17 07:25:59;;;;;;;1.52;0.40;;;15.90;99.90;;;;;;5088908;28;20079;-71
2022/07/17 07:28:25;;;;;;;2.55;0.70;;;15.90;99.90;;;;;;5092831;28;20039;-71
2022/07/17 07:30:51;;;;;;;2.00;0.68;;;15.90;99.90;;;;;;5091322;28;20039;-71
2022/07/17 07:33:16;;;;;;;1.92;0.60;;;15.90;99.90;;;;;;5127495;27;20131;-71
2022/07/17 07:35:43;;;;;;;1.40;0.60;;;16.00;99.90;;;;;;5094346;28;20126;-71
2022/07/17 07:38:09;;;;;;;2.30;0.60;;;16.10;99.90;;;;;;5092260;27;20118;-71
2022/07/17 07:40:35;;;;;;;1.80;0.43;;;16.20;99.90;;;;;;5094477;27;20130;-71
2022/07/17 07:43:01;;;;;;;1.75;0.45;;;16.30;99.90;;;;;;5111808;27;20456;-71
2022/07/17 07:45:27;;;;;;;;;;;16.30;99.90;;;;;;5098720;28;20035;-69
2022/07/17 07:47:52;;;;;;;1.55;0.60;;;16.40;99.90;;;;;;5081973;28;19923;-69
2022/07/17 07:50:21;;;;;;;1.55;0.55;;;16.40;99.90;;;;;;5092246;28;20497;-69
2022/07/17 07:52:47;;;;;;;0.75;0.40;;;16.50;99.90;;;;;;5090681;27;20039;-69
2022/07/17 07:55:13;;;;;;;1.23;0.40;;;16.50;99.90;;;;;;5111412;27;20131;-69
2022/07/17 07:57:39;;;;;;;1.02;0.43;;;16.50;99.90;;;;;;5121280;27;20039;-70
2022/07/17 08:00:06;;;;;;;1.65;0.40;;;16.50;99.90;;;;;;5103053;27;20513;-69
2022/07/17 08:02:33;;;;;;;1.23;0.60;;;16.50;99.90;;;;;;5090739;28;20462;-70
2022/07/17 08:04:58;;;;;;;1.33;0.60;;;16.50;99.90;;;;;;5089106;28;20453;-69
2022/07/17 08:07:29;;;;;;;1.08;0.50;;;16.40;99.90;;;;;;5091209;28;20043;-70
2022/07/17 08:09:54;;;;;;;0.57;0.40;;;16.60;99.90;;;;;;5090801;28;20500;-69
2022/07/17 08:12:21;;;;;;;3.08;0.70;;;16.90;99.90;;;;;;5094895;27;20031;-70
2022/07/17 08:14:47;;;;;;;1.15;0.50;;;16.90;99.90;;;;;;5082934;27;20043;-71
2022/07/17 08:17:13;;;;;;;3.03;0.80;;;17.10;99.90;;;;;;5099435;27;20123;-71
2022/07/17 08:19:38;;;;;;;2.40;0.70;;;17.20;99.90;;;;;;5069354;28;20036;-71
2022/07/17 08:22:04;;;;;;;0.95;0.40;;;17.60;99.90;;;;;;5093561;27;20044;-71
2022/07/17 08:24:29;;;;;;;;;;;18.00;99.90;;;;;;5076382;28;20043;-71
2022/07/17 08:26:55;;;;;;;1.73;0.50;;;18.30;99.90;;;;;;5092098;28;19946;-70
2022/07/17 08:29:21;;;;;;;;;;;18.40;99.90;;;;;;5092845;27;20112;-71
2022/07/17 08:31:46;;;;;;;0.65;0.38;;;18.60;99.90;;;;;;5124739;27;19930;-71
2022/07/17 08:34:14;;;;;;;1.02;0.43;;;18.90;99.90;;;;;;5103464;28;20150;-71
2022/07/17 08:36:40;;;;;;;1.00;0.40;;;19.20;99.90;;;;;;5101828;28;20046;-71
2022/07/17 08:39:06;;;;;;;2.05;0.63;;;19.40;99.90;;;;;;5091522;28;20062;-71
2022/07/17 08:41:36;;;;;;;;;;;18.90;99.90;;;;;;5091573;28;20502;-71
2022/07/17 08:44:06;;;;;;;1.73;0.60;;;19.20;99.90;;;;;;5093268;28;20057;-71
2022/07/17 08:46:37;;;;;;;1.88;0.65;;;19.10;99.90;;;;;;5094354;27;20248;-71
2022/07/17 08:49:04;;;;;;;2.10;0.80;;;18.80;99.90;;;;;;5100307;28;20066;-72
2022/07/17 08:51:30;;;;;;;1.98;0.50;;;18.70;99.90;;;;;;5077122;27;20040;-72
2022/07/17 08:53:57;;;;;;;2.03;0.50;;;18.80;99.90;;;;;;5094720;28;20051;-72
2022/07/17 08:56:24;;;;;;;0.80;0.40;;;19.00;99.90;;;;;;5106374;27;20362;-71
2022/07/17 08:58:50;;;;;;;2.08;0.40;;;19.50;99.90;;;;;;5095393;28;20046;-71
2022/07/17 09:01:18;;;;;;;0.90;0.40;;;19.50;99.90;;;;;;5064998;28;20046;-71
2022/07/17 09:04:00;;;;;;;1.15;0.30;;;19.50;99.90;;;;;;5081748;28;20044;-71
2022/07/17 09:06:26;;;;;;;0.63;0.28;;;19.90;99.90;;;;;;5081421;28;20050;-71
2022/07/17 09:09:05;;;;;;;1.15;0.55;;;20.20;99.90;;;;;;5080241;28;20431;-72
2022/07/17 09:11:48;;;;;;;1.33;0.52;;;19.90;99.90;;;;;;5082476;28;20110;-72
2022/07/17 09:14:14;;;;;;;0.35;0.20;;;20.20;99.90;;;;;;5073537;27;20045;-72
2022/07/17 09:16:52;;;;;;;0.90;0.30;;;20.50;99.90;;;;;;5080498;28;20078;-72
2022/07/17 09:19:29;;;;;;;1.05;0.35;;;20.60;99.90;;;;;;5083250;28;20058;-72
2022/07/17 09:22:14;;;;;;;1.20;0.40;;;20.50;98.20;;;;;;5078728;27;20128;-71
2022/07/17 09:24:58;;;;;;;0.55;0.40;;;20.40;98.40;;;;;;5092178;28;20066;-71
2022/07/17 09:27:25;;;;;;;1.95;0.50;;;20.70;99.10;;;;;;5094761;28;20067;-71
2022/07/17 09:29:59;;;;;;;1.08;0.30;;;20.90;98.70;;;;;;5135646;27;20135;-71
2022/07/17 09:32:28;;;;;;;1.48;0.40;;;20.80;98.20;;;;;;5079292;28;20055;-71
2022/07/17 09:34:55;;;;;;;0.30;0.30;;;20.70;97.60;;;;;;5087625;28;20096;-71
2022/07/17 09:37:26;;;;;;;0.77;0.30;;;20.90;97.50;;;;;;5110152;28;20459;-71
2022/07/17 09:39:55;;;;;;;1.15;0.40;;;21.10;97.40;;;;;;5093588;28;20071;-71
2022/07/17 09:42:32;;;;;;;1.25;0.50;;;21.30;97.70;;;;;;5104556;28;20080;-71
2022/07/17 09:45:08;;;;;;;1.13;0.50;;;20.80;96.10;;;;;;5098445;28;20482;-71
2022/07/17 09:47:35;;;;;;;0.85;0.40;;;20.70;97.00;;;;;;5076454;28;20055;-71
2022/07/17 09:50:03;;;;;;;0.50;0.40;;;20.70;97.00;;;;;;5093700;28;20121;-71
2022/07/17 09:52:31;;;;;;;1.38;0.50;;;21.00;96.60;;;;;;5099807;28;20047;-71
2022/07/17 09:54:58;;;;;;;1.27;0.50;;;20.70;95.80;;;;;;5083323;28;20397;-71
2022/07/17 09:57:32;;;;;;;1.00;0.45;;;20.80;96.70;;;;;;5081260;28;20051;-71
2022/07/17 10:00:23;;;;;;;1.35;0.50;;;21.00;97.20;;;;;;5106929;28;20126;-71
2022/07/17 10:02:49;;;;;;;1.35;0.50;;;21.10;96.70;;;;;;5086091;28;20134;-71
2022/07/17 10:05:16;;;;;;;1.08;0.40;;;21.30;96.90;;;;;;5093485;28;20180;-71
2022/07/17 10:07:46;;;;;;;1.30;0.40;;;21.20;95.90;;;;;;5094976;28;20113;-71
2022/07/17 10:10:14;;;;;;;1.27;0.32;;;21.10;96.10;;;;;;5088308;28;20040;-71
2022/07/17 10:12:43;;;;;;;0.30;0.30;;;21.50;97.40;;;;;;5094506;28;20118;-70
2022/07/17 10:15:10;;;;;;;0.38;0.30;;;22.00;96.60;;;;;;5126953;27;20390;-71
2022/07/17 10:17:36;;;;;;;1.63;0.60;;;22.20;95.90;;;;;;5100334;28;20798;-71
2022/07/17 10:20:06;;;;;;;1.08;0.63;;;21.70;94.90;;;;;;5089562;28;20138;-71
2022/07/17 10:22:46;;;;;;;1.25;0.70;;;21.70;95.20;;;;;;5082847;28;20506;-71
2022/07/17 10:25:15;;;;;;;2.05;0.80;;;21.70;94.50;;;;;;5123804;27;20502;-71
2022/07/17 10:27:56;;;;;;;1.83;0.60;;;21.60;94.70;;;;;;5074294;28;20043;-71
2022/07/17 10:30:28;;;;;;;0.95;0.30;;;21.70;95.20;;;;;;5130337;27;20510;-72
2022/07/17 10:32:59;;;;;;;1.13;0.35;;;22.10;95.50;;;;;;5079309;27;20142;-71
2022/07/17 10:35:26;;;;;;;0.95;0.40;;;22.40;95.20;;;;;;5097873;28;20035;-71
2022/07/17 10:37:52;;;;;;;0.40;0.30;;;22.70;94.80;;;;;;5084243;27;20129;-71
2022/07/17 10:40:23;;;;;;;0.47;0.30;;;22.80;94.20;;;;;;5101926;27;20035;-71
2022/07/17 10:42:57;;;;;;;0.52;0.20;;;23.00;94.70;;;;;;5135392;27;20648;-71
2022/07/17 10:45:37;;;;;;;0.57;0.30;;;23.10;95.10;;;;;;5099694;28;20047;-71
2022/07/17 10:48:15;;;;;;;0.88;0.40;;;23.20;95.30;;;;;;5081449;27;20046;-71
2022/07/17 10:50:48;;;;;;;1.27;0.50;;;23.00;95.40;;;;;;5091998;27;20351;-71
2022/07/17 10:53:17;;;;;;;1.25;0.40;;;22.60;95.10;;;;;;5094673;28;20040;-71
2022/07/17 10:55:49;;;;;;;1.20;0.40;;;22.40;93.40;;;;;;5103411;27;20142;-71
2022/07/17 10:58:28;;;;;;;1.10;0.40;;;22.40;95.60;;;;;;5102828;28;20032;-71
2022/07/17 11:01:12;;;;;;;0.60;0.40;;;22.80;95.40;;;;;;5087132;27;20096;-70
2022/07/17 11:03:39;;;;;;;0.57;0.30;;;23.20;93.80;;;;;;5122351;27;20040;-71
2022/07/17 11:06:15;;;;;;;0.98;0.30;;;23.30;94.00;;;;;;5094227;27;20450;-71
2022/07/17 11:08:49;;;;;;;0.38;0.20;;;23.40;94.10;;;;;;5099562;28;20043;-71
2022/07/17 11:11:17;;;;;;;1.13;0.45;;;23.70;94.00;;;;;;5117096;27;20092;-71
2022/07/17 11:13:43;;;;;;;0.60;0.30;;;23.60;92.80;;;;;;5103064;27;20092;-72
2022/07/17 11:16:09;;;;;;;0.47;0.32;;;23.00;93.20;;;;;;5109519;27;20598;-72
2022/07/17 11:18:36;;;;;;;0.65;0.35;;;23.30;93.90;;;;;;5100277;28;20039;-72
2022/07/17 11:21:03;;;;;;;0.95;0.50;;;23.50;93.60;;;;;;5088674;28;20051;-71
2022/07/17 11:23:32;;;;;;;1.00;0.40;;;23.50;92.90;;;;;;5090024;28;20048;-72
2022/07/17 11:25:59;;;;;;;0.85;0.55;;;23.30;93.70;;;;;;5087052;27;20053;-71
2022/07/17 11:28:39;;;;;;;0.85;0.40;;;23.60;93.40;;;;;;5097600;27;20035;-71
2022/07/17 11:31:22;;;;;;;0.70;0.47;;;23.80;93.00;;;;;;5106885;28;20069;-71
2022/07/17 11:33:55;;;;;;;0.30;0.30;;;24.00;93.50;;;;;;5118632;27;20401;-72
2022/07/17 11:36:25;;;;;;;0.30;0.30;;;24.10;93.00;;;;;;5095135;27;20077;-70
2022/07/17 11:38:53;;;;;;;0.60;0.40;;;24.30;93.80;;;;;;5096755;27;20062;-71
2022/07/17 11:41:19;;;;;;;1.27;0.60;;;24.50;92.70;;;;;;5101405;28;20421;-71
2022/07/17 11:43:46;;;;;;;1.20;0.50;;;23.90;91.60;;;;;;5088384;27;20043;-71
2022/07/17 11:46:12;;;;;;;1.02;0.60;;;23.30;92.30;;;;;;5090228;27;20076;-71
2022/07/17 11:48:41;;;;;;;0.45;0.40;;;23.60;92.90;;;;;;5092842;27;20038;-70
2022/07/17 11:51:07;;;;;;;0.60;0.35;;;23.80;93.30;;;;;;5093636;28;20045;-71
2022/07/17 11:53:38;;;;;;;0.52;0.30;;;24.10;93.00;;;;;;5126007;27;20032;-70
2022/07/17 11:56:05;;;;;;;1.10;0.47;;;24.30;93.00;;;;;;5085945;27;20038;-71
2022/07/17 11:58:42;;;;;;;0.32;0.20;;;24.50;92.70;;;;;;5107418;27;20035;-71
2022/07/17 12:01:11;;;;;;;1.10;0.35;;;24.70;92.70;;;;;;5098320;28;20035;-71
2022/07/17 12:03:37;;;;;;;0.57;0.30;;;25.10;92.00;;;;;;5081405;28;20170;-70
2022/07/17 12:06:03;;;;;;;0.60;0.40;;;25.20;91.70;;;;;;5097743;27;20582;-71
2022/07/17 12:08:29;;;;;;;1.35;0.80;;;24.90;90.90;;;;;;5115099;27;20047;-71
2022/07/17 12:11:08;;;;;;;1.02;0.60;;;24.50;90.80;;;;;;5074393;28;20064;-75
2022/07/17 12:13:39;;;;;;;1.65;0.93;;;24.30;90.60;;;;;;5126463;27;20202;-71
2022/07/17 12:16:28;;;;;;;0.93;0.70;;;24.10;90.90;;;;;;5094919;28;20151;-71
2022/07/17 12:18:56;;;;;;;0.80;0.50;;;24.30;91.60;;;;;;5103607;28;20054;-71
2022/07/17 12:21:22;;;;;;;0.75;0.60;;;24.30;92.10;;;;;;5095479;27;20094;-72
2022/07/17 12:23:58;;;;;;;1.23;0.60;;;24.50;91.60;;;;;;5097766;28;20497;-71
2022/07/17 12:26:24;;;;;;;0.50;0.43;;;24.80;92.10;;;;;;5097983;27;20104;-70
2022/07/17 12:28:49;;;;;;;0.90;0.60;;;24.90;90.30;;;;;;5095436;28;20497;-70
2022/07/17 12:31:15;;;;;;;1.33;0.88;;;25.00;89.50;;;;;;5095716;27;20081;-70
2022/07/17 12:33:42;;;;;;;0.73;0.70;;;24.90;89.50;;;;;;5068597;28;20181;-70
2022/07/17 12:36:08;;;;;;;1.10;0.68;;;25.10;90.20;;;;;;5093178;28;20035;-71
2022/07/17 12:38:34;;;;;;;1.17;0.70;;;25.30;90.60;;;;;;5085574;28;20132;-71
2022/07/17 12:40:59;;;;;;;1.23;0.90;;;25.60;91.00;;;;;;5092974;28;20081;-70
2022/07/17 12:43:25;;;;;;;0.60;0.60;;;25.60;90.50;;;;;;5109952;27;20406;-72
2022/07/17 12:45:51;;;;;;;0.93;0.70;;;25.80;90.00;;;;;;5100435;28;20044;-70
2022/07/17 12:48:17;;;;;;;0.77;0.70;;;25.90;91.00;;;;;;5125252;27;20092;-70
2022/07/17 12:50:43;;;;;;;0.73;0.70;;;25.80;90.80;;;;;;5090975;28;20040;-69